M53 weather

Humboldt Municipal Airport
Humboldt, Tennessee, United States

Public forecast

Using degrees Fahrenheit for public forecast. Weather courtesy of forecast.io.

Closest aviation weather report (METAR) to Humboldt Municipal Airport

Closest report is McKellar-Sipes Regional Airport, 12.3 nm (22.8 km) S. Retrieved 2020/04/05 18:53 UTC (20 minutes ago):

KMKL 051853Z VRB05KT 10SM CLR 23/13 A3008 RMK AO2 SLP183 T02280128

Closest aviation forecast (TAF) to Humboldt Municipal Airport

Closest forecast is McKellar-Sipes Regional Airport, 12.3 nm (22.8 km) S. Retrieved 2020/04/05 18:39 UTC (34 minutes ago):

TAF KMKL 051736Z 0518/0618 36004KT P6SM SKC FM060800 07003KT 6SM BR SCT250 FM061300 08004KT P6SM SCT150